createdAt,value
2022-07-26T00:01:38.535Z,1.20
2022-07-26T00:04:05.588Z,1.50
2022-07-26T00:06:32.269Z,1.10
2022-07-26T00:08:59.095Z,1.43
2022-07-26T00:11:26.982Z,0.93
2022-07-26T00:13:53.790Z,1.40
2022-07-26T00:16:20.937Z,1.50
2022-07-26T00:18:47.769Z,0.93
2022-07-26T00:21:14.957Z,1.50
2022-07-26T00:24:00.448Z,1.33
2022-07-26T00:26:45.786Z,1.03
2022-07-26T00:29:31.453Z,1.20
2022-07-26T00:31:58.205Z,1.00
2022-07-26T00:34:25.131Z,1.00
2022-07-26T00:36:51.789Z,1.23
2022-07-26T00:39:18.489Z,1.20
2022-07-26T00:41:45.264Z,1.63
2022-07-26T00:44:11.963Z,2.00
2022-07-26T00:46:42.979Z,1.23
2022-07-26T00:49:11.074Z,1.30
2022-07-26T00:51:38.269Z,1.50
2022-07-26T00:54:06.273Z,1.80
2022-07-26T00:56:34.097Z,0.90
2022-07-26T00:59:01.812Z,1.13
2022-07-26T01:01:28.607Z,1.50
2022-07-26T01:03:55.502Z,1.50
2022-07-26T01:06:27.362Z,1.37
2022-07-26T01:08:54.816Z,1.43
2022-07-26T01:11:21.521Z,1.20
2022-07-26T01:13:50.028Z,1.40
2022-07-26T01:16:17.677Z,1.70
2022-07-26T01:18:44.721Z,1.03
2022-07-26T01:21:13.641Z,1.67
2022-07-26T01:23:42.324Z,1.20
2022-07-26T01:26:09.206Z,1.90
2022-07-26T01:28:40.034Z,1.70
2022-07-26T01:31:08.059Z,2.13
2022-07-26T01:33:35.196Z,1.20
2022-07-26T01:36:02.466Z,1.20
2022-07-26T01:38:29.384Z,1.90
2022-07-26T01:40:56.140Z,1.90
2022-07-26T01:43:22.827Z,1.73
2022-07-26T01:45:49.648Z,1.53
2022-07-26T01:48:16.397Z,1.40
2022-07-26T01:50:43.223Z,1.93
2022-07-26T01:53:10.152Z,1.70
2022-07-26T01:55:36.924Z,1.10
2022-07-26T01:58:05.404Z,1.97
2022-07-26T02:00:47.385Z,1.27
2022-07-26T02:03:14.146Z,1.47
2022-07-26T02:05:40.984Z,1.73
2022-07-26T02:08:07.872Z,1.63
2022-07-26T02:10:55.148Z,1.80
2022-07-26T02:13:22.323Z,1.70
2022-07-26T02:15:49.085Z,1.90
2022-07-26T02:18:15.891Z,1.27
2022-07-26T02:20:42.605Z,1.63
2022-07-26T02:23:09.382Z,1.53
2022-07-26T02:25:36.148Z,1.57
2022-07-26T02:28:03.309Z,1.93
2022-07-26T02:30:30.141Z,1.60
2022-07-26T02:32:56.805Z,1.27
2022-07-26T02:35:23.834Z,1.60
2022-07-26T02:37:50.560Z,1.53
2022-07-26T02:40:19.548Z,1.90
2022-07-26T02:42:46.623Z,2.00
2022-07-26T02:45:13.315Z,1.77
2022-07-26T02:47:50.395Z,1.87
2022-07-26T02:50:19.013Z,2.17
2022-07-26T02:52:49.489Z,1.50
2022-07-26T02:55:18.699Z,1.77
2022-07-26T02:57:46.883Z,2.10
2022-07-26T03:00:19.411Z,1.50
2022-07-26T03:02:46.366Z,1.93
2022-07-26T03:05:13.123Z,1.80
2022-07-26T03:07:39.886Z,1.70
2022-07-26T03:10:07.830Z,1.47
2022-07-26T03:12:34.713Z,2.33
2022-07-26T03:15:01.673Z,1.87
2022-07-26T03:17:28.419Z,1.60
2022-07-26T03:19:55.618Z,2.20
2022-07-26T03:22:22.301Z,1.90
2022-07-26T03:24:49.033Z,1.63
2022-07-26T03:27:15.740Z,1.70
2022-07-26T03:29:42.440Z,2.33
2022-07-26T03:32:09.970Z,2.10
2022-07-26T03:34:37.173Z,2.10
2022-07-26T03:37:04.473Z,1.70
2022-07-26T03:39:31.311Z,1.80
2022-07-26T03:41:58.088Z,2.03
2022-07-26T03:44:24.792Z,2.10
2022-07-26T03:46:51.472Z,2.00
2022-07-26T03:49:18.263Z,2.43
2022-07-26T03:51:45.535Z,2.40
2022-07-26T03:54:12.630Z,1.87
2022-07-26T03:56:40.759Z,2.23
2022-07-26T03:59:09.369Z,1.90
2022-07-26T04:01:39.758Z,2.00
2022-07-26T04:04:06.798Z,2.03
2022-07-26T04:06:36.921Z,2.03
2022-07-26T04:09:06.084Z,2.50
2022-07-26T04:11:33.554Z,2.50
2022-07-26T04:14:00.527Z,2.07
2022-07-26T04:16:27.350Z,2.20
2022-07-26T04:18:54.666Z,2.50
2022-07-26T04:21:21.361Z,2.57
2022-07-26T04:23:51.360Z,2.70
2022-07-26T04:26:20.372Z,2.53
2022-07-26T04:28:47.299Z,2.30
2022-07-26T04:31:14.204Z,2.90
2022-07-26T04:33:41.101Z,2.80
2022-07-26T04:36:08.099Z,2.50
2022-07-26T04:38:34.863Z,3.67
2022-07-26T04:41:01.637Z,2.17
2022-07-26T04:43:28.374Z,3.13
2022-07-26T04:45:57.404Z,2.57
2022-07-26T04:48:25.527Z,3.23
2022-07-26T04:50:52.845Z,2.93
2022-07-26T04:53:19.883Z,3.47
2022-07-26T04:55:46.579Z,3.00
2022-07-26T04:58:13.277Z,3.70
2022-07-26T05:01:08.973Z,3.27
2022-07-26T05:03:26.744Z,2.90
2022-07-26T05:05:53.697Z,3.60
2022-07-26T05:08:20.445Z,2.97
2022-07-26T05:10:52.995Z,2.80
2022-07-26T05:13:29.429Z,3.13
2022-07-26T05:15:58.231Z,3.53
2022-07-26T05:18:25.704Z,3.27
2022-07-26T05:20:52.565Z,3.70
2022-07-26T05:23:20.349Z,4.13
2022-07-26T05:25:47.862Z,5.00
2022-07-26T05:28:14.798Z,4.23
2022-07-26T05:30:41.691Z,3.40
2022-07-26T05:33:08.418Z,3.93
2022-07-26T05:35:35.183Z,3.60
2022-07-26T05:38:01.915Z,4.30
2022-07-26T05:40:28.726Z,3.50
2022-07-26T05:42:55.434Z,3.50
2022-07-26T05:45:22.190Z,3.93
2022-07-26T05:47:53.344Z,4.20
2022-07-26T05:50:20.140Z,4.50
2022-07-26T05:52:46.959Z,4.10
2022-07-26T05:55:14.033Z,4.20
2022-07-26T05:57:47.333Z,5.03
2022-07-26T06:00:17.019Z,4.63
2022-07-26T06:02:43.873Z,3.73
2022-07-26T06:05:10.872Z,4.70
2022-07-26T06:07:37.989Z,4.00
2022-07-26T06:10:05.508Z,3.90
2022-07-26T06:12:32.198Z,4.50
2022-07-26T06:14:58.905Z,4.00
2022-07-26T06:17:29.918Z,4.80
2022-07-26T06:19:58.240Z,4.27
2022-07-26T06:22:25.206Z,4.67
2022-07-26T06:24:52.054Z,4.73
2022-07-26T06:27:18.743Z,4.60
2022-07-26T06:29:48.325Z,4.80
2022-07-26T06:32:15.092Z,4.83
2022-07-26T06:34:41.775Z,4.60
2022-07-26T06:37:08.477Z,5.30
2022-07-26T06:39:35.145Z,4.27
2022-07-26T06:42:01.847Z,5.13
2022-07-26T06:44:29.106Z,5.40
2022-07-26T06:46:55.922Z,5.40
2022-07-26T06:49:23.177Z,5.53
2022-07-26T06:51:50.313Z,5.87
2022-07-26T06:54:17.130Z,6.30
2022-07-26T06:56:43.802Z,6.27
2022-07-26T06:59:10.509Z,6.83
2022-07-26T07:01:51.449Z,6.80
2022-07-26T07:04:23.964Z,5.97
2022-07-26T07:06:50.731Z,6.57
2022-07-26T07:09:17.432Z,6.37
2022-07-26T07:11:46.100Z,5.80
2022-07-26T07:14:16.011Z,6.40
2022-07-26T07:16:42.730Z,7.70
2022-07-26T07:19:09.414Z,7.00
2022-07-26T07:21:36.083Z,7.40
2022-07-26T07:24:02.755Z,6.77
2022-07-26T07:26:29.508Z,7.37
2022-07-26T07:28:56.364Z,7.50
2022-07-26T07:31:30.158Z,7.77
2022-07-26T07:33:57.463Z,7.20
2022-07-26T07:36:24.287Z,7.00
2022-07-26T07:38:50.943Z,8.27
2022-07-26T07:41:18.822Z,7.80
2022-07-26T07:43:45.620Z,8.43
2022-07-26T07:46:15.259Z,7.77
2022-07-26T07:48:46.833Z,8.87
2022-07-26T07:51:14.450Z,9.33
2022-07-26T07:53:41.160Z,8.93
2022-07-26T07:56:08.086Z,8.20
2022-07-26T07:58:34.785Z,8.33
2022-07-26T08:01:01.702Z,10.23
2022-07-26T08:03:38.190Z,9.67
2022-07-26T08:06:07.959Z,9.20
2022-07-26T08:08:35.611Z,10.10
2022-07-26T08:11:02.875Z,11.07
2022-07-26T08:13:30.690Z,11.50
2022-07-26T08:15:57.906Z,11.67
2022-07-26T08:18:27.727Z,12.83
2022-07-26T08:20:55.352Z,12.40
2022-07-26T08:23:22.612Z,14.00
2022-07-26T08:25:57.050Z,14.87
2022-07-26T08:31:13.840Z,12.73
2022-07-26T08:33:41.060Z,12.63
2022-07-26T08:36:14.369Z,13.13
2022-07-26T08:38:41.798Z,14.23
2022-07-26T08:41:08.459Z,15.20
2022-07-26T08:43:48.903Z,15.10
2022-07-26T08:46:25.934Z,15.43
2022-07-26T08:48:55.098Z,15.30
2022-07-26T08:51:24.055Z,16.80
2022-07-26T08:53:56.918Z,18.40
2022-07-26T08:56:28.835Z,19.37
2022-07-26T08:58:55.741Z,19.90
2022-07-26T09:01:22.828Z,18.67
2022-07-26T09:03:49.655Z,19.37
2022-07-26T09:06:21.917Z,19.53
2022-07-26T09:08:51.698Z,18.90
2022-07-26T09:11:24.457Z,19.40
2022-07-26T09:13:53.202Z,17.03
2022-07-26T09:16:20.811Z,18.93
2022-07-26T09:18:47.666Z,17.50
2022-07-26T09:21:31.765Z,18.40
2022-07-26T09:23:59.916Z,18.00
2022-07-26T09:26:27.050Z,18.33
2022-07-26T09:29:11.805Z,16.60
2022-07-26T09:31:39.713Z,15.90
2022-07-26T09:34:07.742Z,15.27
2022-07-26T09:36:51.438Z,16.50
2022-07-26T09:39:18.169Z,14.90
2022-07-26T09:42:26.777Z,13.30
2022-07-26T09:44:55.958Z,14.10
2022-07-26T09:47:23.369Z,15.77
2022-07-26T09:49:50.195Z,16.70
2022-07-26T09:52:21.089Z,15.67
2022-07-26T09:54:49.443Z,16.80
2022-07-26T09:57:18.579Z,15.50
2022-07-26T09:59:47.004Z,13.90
2022-07-26T10:02:14.411Z,14.77
2022-07-26T10:04:42.172Z,14.00
2022-07-26T10:07:09.831Z,13.20
2022-07-26T10:10:01.942Z,12.57
2022-07-26T10:12:32.420Z,11.40
2022-07-26T10:14:59.666Z,9.63
2022-07-26T10:17:31.577Z,9.23
2022-07-26T10:20:09.241Z,9.27
2022-07-26T10:22:46.139Z,9.87
2022-07-26T10:25:19.525Z,6.87
2022-07-26T10:27:51.702Z,9.73
2022-07-26T10:30:18.488Z,8.60
2022-07-26T10:32:53.960Z,11.97
2022-07-26T10:35:44.947Z,11.80
2022-07-26T10:38:21.869Z,7.30
2022-07-26T10:41:02.992Z,6.93
2022-07-26T10:43:45.785Z,6.00
2022-07-26T10:46:23.370Z,6.00
2022-07-26T10:49:01.533Z,6.17
2022-07-26T10:51:35.360Z,6.30
2022-07-26T10:54:06.011Z,6.53
2022-07-26T10:56:34.047Z,7.73
2022-07-26T10:59:02.046Z,8.00
2022-07-26T11:01:37.302Z,6.67
2022-07-26T11:04:05.353Z,7.30
2022-07-26T11:06:32.760Z,7.97
2022-07-26T11:09:10.479Z,6.43
2022-07-26T11:11:37.172Z,8.47
2022-07-26T11:14:15.462Z,7.80
2022-07-26T11:16:43.830Z,7.27
2022-07-26T11:19:19.013Z,5.63
2022-07-26T11:21:52.516Z,4.20
2022-07-26T11:24:19.275Z,3.63
2022-07-26T11:26:47.106Z,4.57
2022-07-26T11:29:17.053Z,3.80
2022-07-26T11:31:51.934Z,3.63
2022-07-26T11:34:28.527Z,3.30
2022-07-26T11:36:57.974Z,3.70
2022-07-26T11:39:36.078Z,2.47
2022-07-26T11:42:14.985Z,3.43
2022-07-26T11:44:46.346Z,3.03
2022-07-26T11:47:19.556Z,2.67
2022-07-26T11:49:59.870Z,2.60
2022-07-26T11:52:33.529Z,2.77
2022-07-26T11:55:00.351Z,2.97
2022-07-26T11:57:31.373Z,3.47
2022-07-26T11:59:59.630Z,2.80
2022-07-26T12:02:27.837Z,2.53
2022-07-26T12:05:19.438Z,2.63
2022-07-26T12:07:53.755Z,3.30
2022-07-26T12:10:20.697Z,2.93
2022-07-26T12:12:47.550Z,2.80
2022-07-26T12:15:15.577Z,3.60
2022-07-26T12:17:59.198Z,2.60
2022-07-26T12:20:27.930Z,3.60
2022-07-26T12:23:04.842Z,3.17
2022-07-26T12:25:32.146Z,3.43
2022-07-26T12:27:58.827Z,3.40
2022-07-26T12:30:25.832Z,3.53
2022-07-26T12:33:02.115Z,3.80
2022-07-26T12:35:33.330Z,3.70
2022-07-26T12:38:00.349Z,4.27
2022-07-26T12:40:29.105Z,3.53
2022-07-26T12:43:00.801Z,4.00
2022-07-26T12:45:33.606Z,3.57
2022-07-26T12:48:02.155Z,3.13
2022-07-26T12:50:32.679Z,3.67
2022-07-26T12:53:05.089Z,3.40
2022-07-26T12:55:32.374Z,3.37
2022-07-26T12:57:59.630Z,3.50
2022-07-26T13:00:26.933Z,3.10
2022-07-26T13:02:57.275Z,2.73
2022-07-26T13:05:24.188Z,3.40
2022-07-26T13:07:51.574Z,3.33
2022-07-26T13:10:35.614Z,2.80
2022-07-26T13:13:04.239Z,3.30
2022-07-26T13:15:35.277Z,3.30
2022-07-26T13:18:08.428Z,2.73
2022-07-26T13:20:47.929Z,2.60
2022-07-26T13:23:21.384Z,2.93
2022-07-26T13:25:48.735Z,2.70
2022-07-26T13:28:17.089Z,2.50
2022-07-26T13:30:44.056Z,2.53
2022-07-26T13:33:11.493Z,2.67
2022-07-26T13:35:42.490Z,2.77
2022-07-26T13:38:09.592Z,3.10
2022-07-26T13:40:36.615Z,3.13
2022-07-26T13:43:04.125Z,2.70
2022-07-26T13:45:31.009Z,2.77
2022-07-26T13:47:59.102Z,2.70
2022-07-26T13:50:27.748Z,2.70
2022-07-26T13:52:56.492Z,2.23
2022-07-26T13:55:23.681Z,2.17
2022-07-26T13:57:56.922Z,2.00
2022-07-26T14:00:26.978Z,2.20
2022-07-26T14:02:55.046Z,2.40
2022-07-26T14:05:21.963Z,2.50
2022-07-26T14:07:48.732Z,2.27
2022-07-26T14:10:15.676Z,2.03
2022-07-26T14:12:42.412Z,2.07
2022-07-26T14:15:14.102Z,2.40
2022-07-26T14:17:45.516Z,2.20
2022-07-26T14:20:12.700Z,2.70
2022-07-26T14:22:39.716Z,2.03
2022-07-26T14:25:07.200Z,2.60
2022-07-26T14:27:33.911Z,1.60
2022-07-26T14:30:00.601Z,1.83
2022-07-26T14:32:27.296Z,1.80
2022-07-26T14:34:54.005Z,1.80
2022-07-26T14:37:42.634Z,1.70
2022-07-26T14:40:08.183Z,1.70
2022-07-26T14:42:34.853Z,1.90
2022-07-26T14:45:01.576Z,1.97
2022-07-26T14:47:28.256Z,2.80
2022-07-26T14:49:54.933Z,2.10
2022-07-26T14:52:22.214Z,1.60
2022-07-26T14:54:48.934Z,1.73
2022-07-26T14:57:15.664Z,2.20
2022-07-26T14:59:42.377Z,2.00
2022-07-26T15:02:11.244Z,1.80
2022-07-26T15:04:38.087Z,1.67
2022-07-26T15:07:04.768Z,1.57
2022-07-26T15:09:31.440Z,1.50
2022-07-26T15:11:58.553Z,1.60
2022-07-26T15:14:25.405Z,1.50
2022-07-26T15:16:52.228Z,1.77
2022-07-26T15:19:23.607Z,2.03
2022-07-26T15:21:53.833Z,1.80
2022-07-26T15:24:20.814Z,2.00
2022-07-26T15:26:50.047Z,1.90
2022-07-26T15:29:16.772Z,1.70
2022-07-26T15:31:44.322Z,1.80
2022-07-26T15:34:11.407Z,1.53
2022-07-26T15:36:38.378Z,1.60
2022-07-26T15:39:16.636Z,1.97
2022-07-26T15:41:45.050Z,1.80
2022-07-26T15:44:12.573Z,1.43
2022-07-26T15:46:39.934Z,2.20
2022-07-26T15:49:07.680Z,1.97
2022-07-26T15:51:37.024Z,2.03
2022-07-26T15:54:04.693Z,1.50
2022-07-26T15:56:31.376Z,2.00
2022-07-26T15:58:58.441Z,1.90
2022-07-26T16:01:25.251Z,2.37
2022-07-26T16:03:51.948Z,1.90
2022-07-26T16:06:18.628Z,1.80
2022-07-26T16:09:13.428Z,2.00
2022-07-26T16:11:33.029Z,2.00
2022-07-26T16:14:01.142Z,1.97
2022-07-26T16:16:32.065Z,2.00
2022-07-26T16:18:58.932Z,1.77
2022-07-26T16:21:25.647Z,1.90
2022-07-26T16:23:52.447Z,1.87
2022-07-26T16:26:19.222Z,2.40
2022-07-26T16:28:45.924Z,1.90
2022-07-26T16:31:12.778Z,2.47
2022-07-26T16:33:45.875Z,2.40
2022-07-26T16:36:14.065Z,1.73
2022-07-26T16:38:40.948Z,2.00
2022-07-26T16:41:07.910Z,2.00
2022-07-26T16:43:35.516Z,1.97
2022-07-26T16:46:02.511Z,1.50
2022-07-26T16:48:29.309Z,1.70
2022-07-26T16:50:56.075Z,1.60
2022-07-26T16:53:22.923Z,1.43
2022-07-26T16:55:51.700Z,1.87
2022-07-26T16:58:19.289Z,1.20
2022-07-26T17:00:46.999Z,1.20
2022-07-26T17:03:16.047Z,1.30
2022-07-26T17:05:44.402Z,1.43
2022-07-26T17:08:11.193Z,1.37
2022-07-26T17:10:38.017Z,1.40
2022-07-26T17:13:04.971Z,1.47
2022-07-26T17:15:31.772Z,1.20
2022-07-26T17:17:58.468Z,2.03
2022-07-26T17:20:25.698Z,1.50
2022-07-26T17:22:52.557Z,1.40
2022-07-26T17:25:19.224Z,1.53
2022-07-26T17:27:45.957Z,2.03
2022-07-26T17:30:12.869Z,1.57
2022-07-26T17:32:39.720Z,1.40
2022-07-26T17:35:07.368Z,1.60
2022-07-26T17:37:37.304Z,1.67
2022-07-26T17:40:07.915Z,1.20
2022-07-26T17:42:35.859Z,1.70
2022-07-26T17:45:03.593Z,1.30
2022-07-26T17:47:30.914Z,1.33
2022-07-26T17:50:35.786Z,1.13
2022-07-26T17:52:51.435Z,2.27
2022-07-26T17:55:19.206Z,1.40
2022-07-26T17:57:47.568Z,1.20
2022-07-26T18:00:15.334Z,1.10
2022-07-26T18:02:42.217Z,1.00
2022-07-26T18:05:09.427Z,1.03
2022-07-26T18:07:36.309Z,1.20
2022-07-26T18:10:03.877Z,0.80
2022-07-26T18:12:30.559Z,0.90
2022-07-26T18:14:57.513Z,1.10
2022-07-26T18:17:24.735Z,0.80
2022-07-26T18:19:51.435Z,1.00
2022-07-26T18:22:18.095Z,0.83
2022-07-26T18:24:44.800Z,1.10
2022-07-26T18:27:11.560Z,0.87
2022-07-26T18:29:38.251Z,0.80
2022-07-26T18:32:05.222Z,0.90
2022-07-26T18:34:31.892Z,1.60
2022-07-26T18:36:58.559Z,1.37
2022-07-26T18:39:25.268Z,0.97
2022-07-26T18:41:59.377Z,1.37
2022-07-26T18:44:26.043Z,1.00
2022-07-26T18:46:52.801Z,1.10
2022-07-26T18:49:20.209Z,0.90
2022-07-26T18:51:48.528Z,1.00
2022-07-26T18:54:16.329Z,0.93
2022-07-26T18:56:43.288Z,0.90
2022-07-26T18:59:10.569Z,0.80
2022-07-26T19:01:37.615Z,1.00
2022-07-26T19:04:07.144Z,0.90
2022-07-26T19:06:34.699Z,0.83
2022-07-26T19:09:01.537Z,1.00
2022-07-26T19:11:29.572Z,1.03
2022-07-26T19:13:56.501Z,1.40
2022-07-26T19:16:23.582Z,1.30
2022-07-26T19:18:55.370Z,1.40
2022-07-26T19:21:24.194Z,1.73
2022-07-26T19:23:51.328Z,1.40
2022-07-26T19:26:18.080Z,1.57
2022-07-26T19:28:44.793Z,1.70
2022-07-26T19:31:11.586Z,1.83
2022-07-26T19:33:38.439Z,1.83
2022-07-26T19:36:05.338Z,1.70
2022-07-26T19:38:32.900Z,1.57
2022-07-26T19:41:00.339Z,1.13
2022-07-26T19:43:27.312Z,1.40
2022-07-26T19:45:54.139Z,1.60
2022-07-26T19:48:21.109Z,1.77
2022-07-26T19:50:47.825Z,2.13
2022-07-26T19:53:14.534Z,1.70
2022-07-26T19:55:42.365Z,1.67
2022-07-26T19:58:09.193Z,1.50
2022-07-26T20:00:35.979Z,1.40
2022-07-26T20:03:02.885Z,1.43
2022-07-26T20:05:29.892Z,1.47
2022-07-26T20:07:56.703Z,1.53
2022-07-26T20:10:26.214Z,1.23
2022-07-26T20:12:55.307Z,1.60
2022-07-26T20:15:22.542Z,1.40
2022-07-26T20:17:49.355Z,1.37
2022-07-26T20:20:17.767Z,1.73
2022-07-26T20:22:44.483Z,1.80
2022-07-26T20:25:11.731Z,2.00
2022-07-26T20:27:38.467Z,1.57
2022-07-26T20:30:06.513Z,1.40
2022-07-26T20:32:33.201Z,1.30
2022-07-26T20:34:59.903Z,1.80
2022-07-26T20:37:26.614Z,1.80
2022-07-26T20:39:53.292Z,1.60
2022-07-26T20:42:22.091Z,1.30
2022-07-26T20:44:49.393Z,1.53
2022-07-26T20:47:16.187Z,1.60
2022-07-26T20:49:42.904Z,1.77
2022-07-26T20:52:09.551Z,1.53
2022-07-26T20:54:36.373Z,1.70
2022-07-26T20:57:04.282Z,1.50
2022-07-26T20:59:32.293Z,1.90
2022-07-26T21:01:59.103Z,1.73
2022-07-26T21:04:25.808Z,1.97
2022-07-26T21:06:52.866Z,1.53
2022-07-26T21:09:19.760Z,2.27
2022-07-26T21:11:46.714Z,2.03
2022-07-26T21:14:13.521Z,2.43
2022-07-26T21:16:40.291Z,1.90
2022-07-26T21:19:07.043Z,1.90
2022-07-26T21:21:34.629Z,2.30
2022-07-26T21:24:01.305Z,1.60
2022-07-26T21:26:28.123Z,2.10
2022-07-26T21:28:54.806Z,2.00
2022-07-26T21:31:21.621Z,1.40
2022-07-26T21:33:48.767Z,2.13
2022-07-26T21:36:15.478Z,2.40
2022-07-26T21:38:42.354Z,2.20
2022-07-26T21:41:09.711Z,2.40
2022-07-26T21:43:40.159Z,2.30
2022-07-26T21:46:12.189Z,2.03
2022-07-26T21:48:39.783Z,2.00
2022-07-26T21:51:06.608Z,1.97
2022-07-26T21:53:33.301Z,2.00
2022-07-26T21:56:00.040Z,1.90
2022-07-26T21:58:28.126Z,1.90
2022-07-26T22:01:03.297Z,1.50
2022-07-26T22:03:34.965Z,1.93
2022-07-26T22:06:01.748Z,1.47
2022-07-26T22:08:28.516Z,2.67
2022-07-26T22:10:55.248Z,1.40
2022-07-26T22:13:21.914Z,1.63
2022-07-26T22:15:48.663Z,1.40
2022-07-26T22:18:15.764Z,1.60
2022-07-26T22:20:42.980Z,1.93
2022-07-26T22:23:12.277Z,2.00
2022-07-26T22:25:39.363Z,1.73
2022-07-26T22:28:08.174Z,1.43
2022-07-26T22:30:35.163Z,1.73
2022-07-26T22:33:04.357Z,1.43
2022-07-26T22:35:36.517Z,2.17
2022-07-26T22:38:06.030Z,1.10
2022-07-26T22:40:33.088Z,2.23
2022-07-26T22:43:00.293Z,1.40
2022-07-26T22:45:28.677Z,1.83
2022-07-26T22:47:56.709Z,1.80
2022-07-26T22:50:24.824Z,2.00
2022-07-26T22:52:52.015Z,2.00
2022-07-26T22:55:18.957Z,1.50
2022-07-26T22:57:45.814Z,1.40
2022-07-26T23:00:14.707Z,1.40
2022-07-26T23:02:41.464Z,1.60
2022-07-26T23:05:09.176Z,1.40
2022-07-26T23:07:38.061Z,1.50
2022-07-26T23:10:07.429Z,1.67
2022-07-26T23:12:34.337Z,1.90
2022-07-26T23:15:01.181Z,2.17
2022-07-26T23:17:28.077Z,1.40
2022-07-26T23:19:54.802Z,1.33
2022-07-26T23:22:21.543Z,2.00
2022-07-26T23:24:48.274Z,1.80
2022-07-26T23:27:19.822Z,1.80
2022-07-26T23:29:47.979Z,1.70
2022-07-26T23:32:15.781Z,1.50
2022-07-26T23:34:42.687Z,1.80
2022-07-26T23:37:09.489Z,1.63
2022-07-26T23:39:36.374Z,1.77
2022-07-26T23:42:03.288Z,2.00
2022-07-26T23:44:31.012Z,1.20
2022-07-26T23:46:58.328Z,1.20
2022-07-26T23:49:25.378Z,1.70
2022-07-26T23:51:53.059Z,1.60
2022-07-26T23:54:19.901Z,1.43
2022-07-26T23:56:47.395Z,1.50
2022-07-26T23:59:14.714Z,1.53
